createdAt,value
2023-03-04T00:02:19.909Z,75.69
2023-03-04T00:04:46.721Z,75.79
2023-03-04T00:07:17.068Z,75.96
2023-03-04T00:09:46.491Z,75.93
2023-03-04T00:12:13.701Z,76.01
2023-03-04T00:14:41.498Z,76.04
2023-03-04T00:17:08.454Z,76.05
2023-03-04T00:19:35.665Z,76.26
2023-03-04T00:22:04.402Z,76.14
2023-03-04T00:24:32.356Z,76.21
2023-03-04T00:26:59.750Z,75.52
2023-03-04T00:29:27.062Z,75.93
2023-03-04T00:31:54.107Z,75.18
2023-03-04T00:34:21.485Z,74.95
2023-03-04T00:36:48.544Z,74.94
2023-03-04T00:39:15.762Z,74.24
2023-03-04T00:41:42.666Z,74.42
2023-03-04T00:44:09.825Z,73.72
2023-03-04T00:46:36.725Z,73.92
2023-03-04T00:49:03.651Z,74.25
2023-03-04T00:51:30.480Z,74.12
2023-03-04T00:53:59.665Z,74.17
2023-03-04T00:56:27.844Z,74.18
2023-03-04T00:58:54.724Z,73.99
2023-03-04T01:01:22.124Z,73.77
2023-03-04T01:03:49.272Z,73.91
2023-03-04T01:06:16.239Z,73.85
2023-03-04T01:08:43.698Z,74.04
2023-03-04T01:11:10.614Z,74.23
2023-03-04T01:13:37.659Z,74.66
2023-03-04T01:16:05.281Z,74.74
2023-03-04T01:18:32.410Z,74.51
2023-03-04T01:20:59.755Z,74.75
2023-03-04T01:23:26.588Z,74.98
2023-03-04T01:25:53.545Z,75.12
2023-03-04T01:28:20.412Z,75.43
2023-03-04T01:30:47.299Z,75.56
2023-03-04T01:33:14.308Z,75.04
2023-03-04T01:35:41.239Z,75.32
2023-03-04T01:38:08.293Z,75.48
2023-03-04T01:40:35.553Z,75.32
2023-03-04T01:43:02.458Z,75.34
2023-03-04T01:45:30.539Z,75.49
2023-03-04T01:47:57.402Z,75.30
2023-03-04T01:50:32.557Z,75.30
2023-03-04T01:53:00.539Z,74.73
2023-03-04T01:55:29.356Z,74.64
2023-03-04T01:57:57.613Z,74.83
2023-03-04T02:00:28.552Z,75.09
2023-03-04T02:03:09.147Z,74.46
2023-03-04T02:05:40.041Z,74.46
2023-03-04T02:08:08.504Z,74.56
2023-03-04T02:10:35.896Z,74.60
2023-03-04T02:13:03.578Z,74.58
2023-03-04T02:15:30.870Z,74.12
2023-03-04T02:17:57.744Z,74.21
2023-03-04T02:20:33.091Z,73.80
2023-03-04T02:23:17.932Z,73.61
2023-03-04T02:26:17.186Z,73.38
2023-03-04T02:28:45.779Z,73.84
2023-03-04T02:31:42.685Z,74.17
2023-03-04T02:34:17.894Z,74.40
2023-03-04T02:36:46.650Z,74.15
2023-03-04T02:39:35.446Z,74.27
2023-03-04T02:42:04.200Z,74.00
2023-03-04T02:44:34.989Z,73.69
2023-03-04T02:47:04.588Z,73.83
2023-03-04T02:49:33.144Z,73.78
2023-03-04T02:52:06.436Z,73.95
2023-03-04T02:54:33.758Z,74.33
2023-03-04T02:57:04.241Z,74.02
2023-03-04T02:59:31.830Z,73.87
2023-03-04T03:01:58.664Z,73.65
2023-03-04T03:04:26.839Z,73.61
2023-03-04T03:06:53.986Z,73.93
2023-03-04T03:09:21.306Z,74.22
2023-03-04T03:11:48.621Z,74.08
2023-03-04T03:14:15.625Z,73.91
2023-03-04T03:16:43.398Z,74.32
2023-03-04T03:19:10.262Z,74.30
2023-03-04T03:21:37.077Z,74.25
2023-03-04T03:24:04.398Z,74.54
2023-03-04T03:26:31.236Z,74.63
2023-03-04T03:28:58.046Z,74.88
2023-03-04T03:31:24.839Z,74.87
2023-03-04T03:33:51.725Z,75.06
2023-03-04T03:36:18.655Z,74.72
2023-03-04T03:38:45.473Z,75.04
2023-03-04T03:41:12.315Z,74.89
2023-03-04T03:43:39.130Z,74.99
2023-03-04T03:46:05.970Z,74.95
2023-03-04T03:48:32.824Z,75.04
2023-03-04T03:50:59.868Z,74.83
2023-03-04T03:53:26.688Z,74.71
2023-03-04T03:55:53.517Z,74.79
2023-03-04T03:58:20.618Z,74.87
2023-03-04T04:00:47.442Z,75.00
2023-03-04T04:03:17.870Z,75.37
2023-03-04T04:05:44.769Z,75.66
2023-03-04T04:08:17.529Z,75.21
2023-03-04T04:10:45.081Z,75.02
2023-03-04T04:13:12.308Z,74.99
2023-03-04T04:15:40.427Z,75.01
2023-03-04T04:18:07.693Z,75.21
2023-03-04T04:20:35.436Z,74.71
2023-03-04T04:23:03.518Z,74.55
2023-03-04T04:25:30.540Z,74.62
2023-03-04T04:27:57.511Z,74.58
2023-03-04T04:30:24.648Z,74.67
2023-03-04T04:32:51.986Z,74.36
2023-03-04T04:35:20.604Z,74.06
2023-03-04T04:37:47.494Z,74.05
2023-03-04T04:40:14.537Z,74.31
2023-03-04T04:42:41.376Z,74.19
2023-03-04T04:45:09.272Z,74.45
2023-03-04T04:47:36.261Z,74.77
2023-03-04T04:50:03.489Z,74.35
2023-03-04T04:52:30.385Z,74.36
2023-03-04T04:54:57.298Z,74.56
2023-03-04T04:57:24.539Z,74.48
2023-03-04T04:59:51.416Z,74.43
2023-03-04T05:02:18.224Z,74.33
2023-03-04T05:04:45.006Z,74.38
2023-03-04T05:07:11.780Z,74.53
2023-03-04T05:09:38.761Z,74.65
2023-03-04T05:12:05.848Z,74.51
2023-03-04T05:14:32.687Z,74.64
2023-03-04T05:16:59.544Z,74.65
2023-03-04T05:19:26.402Z,73.91
2023-03-04T05:21:53.179Z,74.46
2023-03-04T05:24:20.547Z,74.48
2023-03-04T05:26:47.518Z,74.60
2023-03-04T05:29:14.311Z,75.02
2023-03-04T05:31:41.110Z,75.03
2023-03-04T05:34:07.910Z,74.68
2023-03-04T05:36:34.686Z,74.18
2023-03-04T05:39:01.461Z,74.48
2023-03-04T05:41:28.298Z,74.19
2023-03-04T05:43:55.347Z,74.65
2023-03-04T05:46:25.980Z,74.65
2023-03-04T05:48:54.852Z,74.44
2023-03-04T05:51:23.629Z,74.68
2023-03-04T05:53:50.572Z,74.54
2023-03-04T05:56:21.352Z,74.74
2023-03-04T05:58:48.309Z,74.58
2023-03-04T06:01:15.849Z,74.09
2023-03-04T06:03:45.480Z,74.29
2023-03-04T06:06:12.491Z,74.35
2023-03-04T06:08:39.302Z,74.46
2023-03-04T06:11:06.387Z,74.48
2023-03-04T06:13:34.340Z,74.48
2023-03-04T06:16:01.716Z,74.08
2023-03-04T06:18:29.807Z,74.33
2023-03-04T06:21:03.242Z,74.19
2023-03-04T06:23:31.108Z,74.22
2023-03-04T06:26:00.202Z,73.84
2023-03-04T06:28:28.105Z,73.82
2023-03-04T06:30:56.955Z,73.56
2023-03-04T06:33:24.551Z,73.82
2023-03-04T06:35:56.146Z,73.04
2023-03-04T06:38:24.347Z,72.97
2023-03-04T06:40:51.680Z,73.08
2023-03-04T06:43:19.313Z,73.23
2023-03-04T06:45:46.198Z,73.26
2023-03-04T06:48:13.594Z,73.06
2023-03-04T06:50:41.293Z,73.08
2023-03-04T06:53:08.123Z,73.21
2023-03-04T06:55:35.004Z,73.19
2023-03-04T06:58:01.862Z,72.94
2023-03-04T07:00:29.019Z,73.16
2023-03-04T07:02:55.857Z,73.30
2023-03-04T07:05:22.649Z,72.82
2023-03-04T07:07:49.931Z,73.13
2023-03-04T07:10:18.925Z,73.44
2023-03-04T07:12:46.204Z,73.96
2023-03-04T07:15:13.843Z,73.56
2023-03-04T07:17:41.082Z,73.83
2023-03-04T07:20:10.015Z,73.88
2023-03-04T07:22:37.274Z,73.63
2023-03-04T07:25:05.818Z,74.07
2023-03-04T07:27:33.085Z,74.31
2023-03-04T07:29:59.908Z,74.29
2023-03-04T07:32:27.475Z,74.36
2023-03-04T07:34:54.314Z,74.24
2023-03-04T07:37:21.166Z,74.37
2023-03-04T07:39:48.100Z,74.71
2023-03-04T07:42:14.952Z,74.56
2023-03-04T07:44:41.765Z,74.56
2023-03-04T07:47:09.048Z,73.88
2023-03-04T07:49:35.917Z,73.75
2023-03-04T07:52:06.557Z,73.78
2023-03-04T07:54:33.577Z,73.61
2023-03-04T07:57:00.404Z,74.54
2023-03-04T07:59:27.237Z,74.30
2023-03-04T08:01:54.012Z,74.15
2023-03-04T08:04:21.152Z,74.29
2023-03-04T08:06:48.983Z,74.37
2023-03-04T08:09:16.014Z,74.73
2023-03-04T08:11:43.629Z,75.04
2023-03-04T08:14:13.152Z,75.25
2023-03-04T08:16:40.354Z,75.22
2023-03-04T08:19:08.262Z,75.29
2023-03-04T08:21:35.633Z,75.21
2023-03-04T08:24:08.709Z,75.49
2023-03-04T08:26:42.167Z,75.59
2023-03-04T08:29:13.721Z,75.52
2023-03-04T08:31:41.453Z,75.35
2023-03-04T08:34:10.661Z,74.77
2023-03-04T08:36:37.706Z,74.34
2023-03-04T08:39:05.917Z,74.08
2023-03-04T08:41:33.321Z,73.42
2023-03-04T08:44:01.484Z,73.63
2023-03-04T08:46:29.594Z,73.37
2023-03-04T08:48:56.753Z,73.10
2023-03-04T08:51:23.859Z,72.97
2023-03-04T08:53:50.634Z,73.48
2023-03-04T08:56:18.498Z,73.28
2023-03-04T08:58:45.579Z,73.65
2023-03-04T09:01:14.818Z,73.56
2023-03-04T09:03:42.777Z,73.94
2023-03-04T09:06:14.113Z,73.54
2023-03-04T09:08:41.071Z,73.60
2023-03-04T09:11:08.706Z,73.41
2023-03-04T09:13:35.807Z,73.21
2023-03-04T09:16:02.758Z,73.38
2023-03-04T09:18:29.941Z,73.46
2023-03-04T09:20:56.797Z,72.75
2023-03-04T09:23:23.635Z,71.50
2023-03-04T09:25:50.879Z,71.08
2023-03-04T09:28:20.157Z,70.83
2023-03-04T09:30:47.350Z,71.01
2023-03-04T09:33:15.193Z,70.78
2023-03-04T09:35:42.556Z,70.32
2023-03-04T09:38:09.913Z,69.69
2023-03-04T09:40:47.326Z,69.66
2023-03-04T09:43:29.666Z,69.55
2023-03-04T09:46:02.011Z,69.86
2023-03-04T09:48:40.837Z,69.50
2023-03-04T09:51:35.923Z,69.64
2023-03-04T09:54:26.730Z,70.02
2023-03-04T09:57:05.196Z,69.78
2023-03-04T09:59:45.463Z,69.91
2023-03-04T10:03:03.236Z,70.08
2023-03-04T10:05:35.165Z,69.81
2023-03-04T10:08:29.790Z,69.98
2023-03-04T10:11:01.294Z,69.67
2023-03-04T10:13:41.808Z,68.47
2023-03-04T10:16:15.221Z,68.20
2023-03-04T10:18:55.151Z,68.34
2023-03-04T10:21:37.367Z,67.59
2023-03-04T10:24:18.360Z,68.04
2023-03-04T10:26:48.804Z,67.75
2023-03-04T10:29:22.781Z,67.00
2023-03-04T10:31:50.035Z,67.19
2023-03-04T10:34:18.236Z,67.04
2023-03-04T10:37:05.793Z,65.69
2023-03-04T10:39:37.758Z,66.27
2023-03-04T10:42:16.798Z,65.47
2023-03-04T10:45:01.477Z,65.36
2023-03-04T10:47:31.783Z,66.16
2023-03-04T10:50:02.513Z,65.79
2023-03-04T10:52:40.224Z,65.59
2023-03-04T10:55:18.183Z,65.26
2023-03-04T10:57:50.975Z,65.60
2023-03-04T11:00:17.684Z,65.65
2023-03-04T11:02:49.207Z,65.55
2023-03-04T11:05:17.852Z,65.45
2023-03-04T11:07:56.957Z,65.29
2023-03-04T11:10:36.433Z,64.36
2023-03-04T11:13:11.992Z,64.53
2023-03-04T11:16:06.641Z,63.72
2023-03-04T11:18:44.990Z,63.90
2023-03-04T11:21:23.178Z,64.15
2023-03-04T11:24:04.446Z,64.15
2023-03-04T11:26:47.814Z,64.27
2023-03-04T11:29:43.814Z,64.49
2023-03-04T11:32:27.542Z,64.11
2023-03-04T11:35:16.768Z,64.69
2023-03-04T11:38:20.599Z,64.38
2023-03-04T11:41:21.116Z,64.60
2023-03-04T11:43:48.750Z,64.34
2023-03-04T11:46:36.992Z,63.80
2023-03-04T11:49:10.005Z,64.08
2023-03-04T11:52:10.510Z,63.97
2023-03-04T11:55:02.135Z,63.09
2023-03-04T11:58:04.588Z,63.20
2023-03-04T12:01:04.496Z,62.25
2023-03-04T12:03:52.963Z,62.71
2023-03-04T12:06:48.296Z,62.21
2023-03-04T12:09:29.822Z,62.20
2023-03-04T12:12:23.563Z,62.82
2023-03-04T12:15:07.109Z,62.39
2023-03-04T12:17:42.722Z,62.25
2023-03-04T12:20:37.440Z,61.62
2023-03-04T12:24:04.754Z,61.84
2023-03-04T12:26:43.833Z,62.01
2023-03-04T12:29:29.181Z,62.24
2023-03-04T12:32:18.572Z,62.84
2023-03-04T12:35:23.755Z,62.84
2023-03-04T12:38:29.204Z,63.54
2023-03-04T12:41:18.270Z,63.74
2023-03-04T12:43:45.145Z,64.06
2023-03-04T12:46:25.057Z,63.92
2023-03-04T12:49:20.377Z,63.82
2023-03-04T12:52:43.994Z,64.22
2023-03-04T12:55:16.869Z,64.99
2023-03-04T12:57:43.906Z,64.57
2023-03-04T13:00:35.425Z,64.67
2023-03-04T13:03:23.574Z,65.01
2023-03-04T13:06:11.167Z,64.99
2023-03-04T13:08:46.197Z,65.46
2023-03-04T13:11:34.662Z,65.90
2023-03-04T13:14:27.531Z,66.55
2023-03-04T13:17:49.684Z,65.66
2023-03-04T13:20:22.670Z,65.28
2023-03-04T13:23:19.722Z,65.31
2023-03-04T13:25:55.547Z,65.37
2023-03-04T13:28:26.984Z,64.84
2023-03-04T13:30:57.231Z,64.70
2023-03-04T13:33:24.008Z,64.48
2023-03-04T13:36:04.238Z,63.71
2023-03-04T13:38:31.329Z,64.02
2023-03-04T13:41:20.935Z,62.08
2023-03-04T13:43:53.213Z,62.77
2023-03-04T13:46:20.072Z,62.73
2023-03-04T13:48:53.212Z,62.42
2023-03-04T13:51:43.137Z,61.23
2023-03-04T13:54:29.204Z,61.71
2023-03-04T13:57:03.010Z,61.75
2023-03-04T13:59:46.837Z,62.04
2023-03-04T14:02:20.257Z,61.99
2023-03-04T14:05:01.358Z,62.17
2023-03-04T14:07:35.679Z,62.20
2023-03-04T14:10:24.796Z,61.17
2023-03-04T14:12:56.289Z,61.88
2023-03-04T14:15:30.119Z,61.63
2023-03-04T14:18:00.444Z,61.87
2023-03-04T14:20:47.858Z,61.77
2023-03-04T14:23:32.322Z,61.96
2023-03-04T14:26:13.675Z,61.59
2023-03-04T14:28:57.511Z,61.17
2023-03-04T14:31:30.720Z,60.95
2023-03-04T14:34:02.282Z,61.54
2023-03-04T14:36:37.023Z,61.55
2023-03-04T14:39:07.003Z,61.51
2023-03-04T14:41:40.709Z,61.05
2023-03-04T14:44:47.013Z,61.71
2023-03-04T14:47:33.986Z,61.63
2023-03-04T14:50:01.175Z,61.86
2023-03-04T14:52:38.283Z,62.26
2023-03-04T14:55:14.361Z,62.10
2023-03-04T14:57:44.313Z,62.00
2023-03-04T15:00:21.751Z,61.93
2023-03-04T15:03:18.813Z,61.49
2023-03-04T15:05:46.905Z,61.84
2023-03-04T15:08:27.728Z,61.73
2023-03-04T15:11:02.658Z,61.93
2023-03-04T15:13:50.295Z,62.16
2023-03-04T15:16:23.804Z,62.04
2023-03-04T15:19:06.303Z,62.12
2023-03-04T15:21:41.454Z,62.23
2023-03-04T15:24:12.888Z,62.30
2023-03-04T15:26:43.673Z,62.45
2023-03-04T15:29:18.479Z,62.56
2023-03-04T15:31:48.968Z,62.81
2023-03-04T15:34:19.502Z,62.12
2023-03-04T15:36:50.174Z,61.94
2023-03-04T15:39:19.162Z,62.11
2023-03-04T15:41:50.834Z,62.05
2023-03-04T15:44:17.653Z,62.43
2023-03-04T15:46:44.598Z,62.96
2023-03-04T15:49:12.043Z,62.98
2023-03-04T15:51:39.081Z,62.95
2023-03-04T15:54:14.753Z,63.23
2023-03-04T15:56:41.728Z,63.34
2023-03-04T15:59:15.142Z,63.54
2023-03-04T16:01:42.314Z,63.57
2023-03-04T16:04:17.318Z,63.79
2023-03-04T16:06:47.250Z,63.36
2023-03-04T16:09:17.469Z,63.44
2023-03-04T16:11:48.049Z,63.39
2023-03-04T16:14:17.198Z,63.07
2023-03-04T16:16:47.465Z,63.08
2023-03-04T16:19:15.640Z,63.51
2023-03-04T16:21:44.144Z,63.31
2023-03-04T16:24:19.480Z,63.48
2023-03-04T16:26:47.292Z,63.75
2023-03-04T16:29:16.487Z,63.31
2023-03-04T16:31:44.415Z,63.68
2023-03-04T16:34:12.319Z,64.06
2023-03-04T16:36:39.722Z,64.09
2023-03-04T16:39:17.515Z,63.96
2023-03-04T16:41:44.787Z,63.95
2023-03-04T16:44:14.274Z,64.50
2023-03-04T16:46:41.736Z,64.35
2023-03-04T16:49:08.670Z,63.88
2023-03-04T16:51:43.756Z,64.10
2023-03-04T16:54:22.995Z,64.61
2023-03-04T16:56:49.998Z,65.09
2023-03-04T16:59:17.756Z,65.43
2023-03-04T17:01:44.951Z,65.41
2023-03-04T17:04:11.890Z,65.70
2023-03-04T17:06:40.317Z,66.08
2023-03-04T17:09:08.446Z,66.08
2023-03-04T17:11:36.182Z,66.03
2023-03-04T17:14:03.338Z,66.51
2023-03-04T17:16:30.225Z,66.70
2023-03-04T17:18:57.348Z,66.64
2023-03-04T17:21:26.948Z,66.58
2023-03-04T17:23:54.842Z,66.70
2023-03-04T17:26:22.737Z,66.84
2023-03-04T17:28:51.765Z,67.23
2023-03-04T17:31:21.117Z,67.36
2023-03-04T17:33:49.088Z,67.66
2023-03-04T17:36:18.677Z,67.91
2023-03-04T17:38:46.170Z,67.81
2023-03-04T17:41:17.650Z,67.85
2023-03-04T17:43:49.786Z,67.36
2023-03-04T17:46:20.222Z,67.12
2023-03-04T17:48:47.337Z,67.09
2023-03-04T17:51:14.226Z,67.44
2023-03-04T17:53:41.675Z,67.25
2023-03-04T17:56:10.855Z,67.73
2023-03-04T17:58:38.010Z,67.05
2023-03-04T18:01:15.374Z,66.45
2023-03-04T18:03:42.709Z,66.75
2023-03-04T18:06:09.556Z,67.23
2023-03-04T18:08:36.403Z,67.25
2023-03-04T18:11:03.746Z,67.74
2023-03-04T18:13:31.016Z,67.72
2023-03-04T18:15:57.931Z,67.55
2023-03-04T18:18:24.873Z,67.69
2023-03-04T18:20:59.220Z,67.84
2023-03-04T18:23:27.795Z,67.86
2023-03-04T18:25:55.666Z,67.84
2023-03-04T18:28:23.098Z,68.22
2023-03-04T18:30:54.365Z,68.37
2023-03-04T18:33:21.854Z,68.58
2023-03-04T18:35:48.851Z,68.90
2023-03-04T18:38:15.847Z,69.04
2023-03-04T18:40:44.368Z,69.08
2023-03-04T18:43:11.193Z,69.27
2023-03-04T18:45:38.665Z,69.00
2023-03-04T18:48:05.988Z,68.97
2023-03-04T18:50:33.443Z,68.67
2023-03-04T18:53:00.452Z,68.26
2023-03-04T18:55:27.556Z,68.44
2023-03-04T18:57:58.088Z,68.38
2023-03-04T19:00:25.794Z,68.52
2023-03-04T19:03:02.016Z,68.83
2023-03-04T19:05:32.155Z,69.13
2023-03-04T19:07:59.514Z,69.36
2023-03-04T19:10:27.436Z,69.69
2023-03-04T19:12:54.378Z,69.83
2023-03-04T19:15:22.942Z,69.67
2023-03-04T19:17:49.820Z,69.44
2023-03-04T19:20:17.213Z,69.85
2023-03-04T19:22:44.850Z,69.96
2023-03-04T19:25:15.994Z,69.91
2023-03-04T19:27:44.032Z,70.16
2023-03-04T19:30:14.637Z,70.61
2023-03-04T19:32:44.453Z,70.87
2023-03-04T19:35:13.052Z,71.01
2023-03-04T19:37:41.533Z,71.16
2023-03-04T19:40:10.635Z,71.59
2023-03-04T19:42:38.455Z,71.52
2023-03-04T19:45:09.710Z,71.85
2023-03-04T19:47:37.902Z,71.90
2023-03-04T19:50:07.232Z,72.10
2023-03-04T19:52:34.327Z,72.40
2023-03-04T19:55:01.597Z,72.40
2023-03-04T19:57:28.449Z,72.07
2023-03-04T19:59:55.225Z,72.33
2023-03-04T20:02:22.030Z,72.47
2023-03-04T20:04:48.959Z,72.67
2023-03-04T20:07:16.039Z,72.50
2023-03-04T20:09:42.946Z,72.09
2023-03-04T20:12:10.168Z,72.24
2023-03-04T20:14:37.702Z,72.03
2023-03-04T20:17:07.183Z,71.91
2023-03-04T20:19:35.430Z,71.67
2023-03-04T20:22:03.361Z,71.83
2023-03-04T20:24:31.532Z,72.16
2023-03-04T20:27:00.104Z,72.55
2023-03-04T20:29:28.702Z,72.46
2023-03-04T20:31:57.510Z,72.10
2023-03-04T20:34:27.249Z,72.20
2023-03-04T20:36:54.440Z,71.81
2023-03-04T20:39:29.625Z,72.24
2023-03-04T20:41:58.824Z,72.08
2023-03-04T20:44:26.153Z,72.28
2023-03-04T20:46:53.636Z,72.60
2023-03-04T20:49:24.565Z,72.19
2023-03-04T20:51:53.344Z,72.02
2023-03-04T20:54:21.187Z,72.50
2023-03-04T20:56:48.526Z,72.48
2023-03-04T20:59:15.919Z,72.49
2023-03-04T21:01:45.479Z,73.02
2023-03-04T21:04:13.708Z,72.21
2023-03-04T21:06:41.470Z,70.73
2023-03-04T21:09:13.519Z,70.79
2023-03-04T21:11:41.149Z,71.23
2023-03-04T21:14:13.676Z,71.26
2023-03-04T21:16:41.316Z,71.24
2023-03-04T21:19:20.004Z,71.18
2023-03-04T21:21:49.193Z,71.28
2023-03-04T21:24:22.592Z,71.30
2023-03-04T21:26:49.852Z,71.09
2023-03-04T21:29:20.926Z,70.96
2023-03-04T21:31:53.394Z,70.94
2023-03-04T21:34:33.764Z,71.00
2023-03-04T21:37:01.701Z,70.21
2023-03-04T21:39:28.731Z,70.06
2023-03-04T21:41:57.396Z,70.39
2023-03-04T21:44:38.587Z,70.31
2023-03-04T21:47:14.990Z,70.68
2023-03-04T21:49:42.256Z,70.40
2023-03-04T21:52:10.456Z,70.10
2023-03-04T21:54:37.699Z,70.50
2023-03-04T21:57:04.759Z,70.21
2023-03-04T21:59:32.603Z,70.12
2023-03-04T22:01:59.849Z,70.44
2023-03-04T22:04:26.788Z,70.18
2023-03-04T22:06:53.780Z,70.04
2023-03-04T22:09:20.953Z,70.01
2023-03-04T22:11:47.849Z,69.83
2023-03-04T22:14:14.744Z,69.61
2023-03-04T22:16:58.997Z,69.88
2023-03-04T22:19:30.379Z,69.92
2023-03-04T22:21:57.364Z,69.96
2023-03-04T22:24:24.262Z,69.92
2023-03-04T22:26:52.517Z,70.06
2023-03-04T22:29:19.525Z,70.08
2023-03-04T22:31:46.450Z,70.11
2023-03-04T22:34:16.269Z,70.41
2023-03-04T22:36:47.836Z,70.71
2023-03-04T22:39:19.480Z,70.27
2023-03-04T22:41:46.991Z,70.15
2023-03-04T22:44:14.481Z,70.35
2023-03-04T22:46:41.887Z,70.04
2023-03-04T22:49:11.870Z,70.19
2023-03-04T22:51:42.875Z,70.00
2023-03-04T22:54:18.472Z,69.73
2023-03-04T22:56:46.170Z,70.22
2023-03-04T22:59:13.874Z,70.26
2023-03-04T23:01:41.533Z,70.30
2023-03-04T23:04:08.672Z,69.66
2023-03-04T23:06:36.757Z,70.28
2023-03-04T23:09:04.322Z,70.19
2023-03-04T23:11:35.844Z,70.11
2023-03-04T23:14:07.108Z,70.34
2023-03-04T23:16:38.732Z,70.41
2023-03-04T23:19:06.974Z,70.61
2023-03-04T23:21:34.123Z,70.21
2023-03-04T23:24:06.307Z,70.65
2023-03-04T23:26:38.857Z,70.52
2023-03-04T23:29:11.092Z,70.60
2023-03-04T23:31:38.038Z,70.51
2023-03-04T23:34:05.445Z,70.68
2023-03-04T23:36:36.363Z,71.10
2023-03-04T23:39:08.977Z,70.86
2023-03-04T23:41:36.242Z,71.59
2023-03-04T23:44:06.618Z,71.48
2023-03-04T23:46:33.736Z,71.44
2023-03-04T23:49:00.635Z,71.25
2023-03-04T23:51:29.674Z,71.31
2023-03-04T23:53:57.538Z,71.86
2023-03-04T23:56:28.628Z,72.12
2023-03-04T23:58:57.277Z,71.58
